ZFD weather

Fond-Du-Lac Airport
Fond-Du-Lac, Saskatchewan, Canada

Public forecast

Using degrees Celsius for public forecast. Weather courtesy of forecast.io.

Closest aviation weather report (METAR) to Fond-Du-Lac Airport

Closest report is Stony Rapids Airport, 41.4 nm (76.7 km) E. Retrieved 2019/10/21 06:00 UTC (5 minutes ago):

CYSF 210600Z AUTO 25004KT 9SM CLR M03/M05 A2978 RMK SLP102

Closest aviation forecast (TAF) to Fond-Du-Lac Airport

Closest forecast is Stony Rapids Airport, 41.4 nm (76.7 km) E. Retrieved 2019/10/21 06:42 UTC (0 seconds ago):

TAF CYSF 210538Z 2106/2118 24005KT P6SM SCT060 TEMPO 2106/2109 BKN060 FM210900 26005KT P6SM BKN050 TEMPO 2109/2118 5SM -SN BKN020 OVC050 RMK FCST BASED ON AUTO OBS NXT FCST BY 211200Z